createdAt,value
2018-11-26T00:00:33.224Z,92.35
2018-11-26T00:01:05.939Z,78.90
2018-11-26T00:01:38.654Z,86.80
2018-11-26T00:02:11.339Z,88.35
2018-11-26T00:02:43.984Z,94.62
2018-11-26T00:03:16.653Z,80.90
2018-11-26T00:03:49.236Z,92.15
2018-11-26T00:04:21.851Z,85.92
2018-11-26T00:04:54.448Z,90.20
2018-11-26T00:05:27.048Z,86.53
2018-11-26T00:05:59.657Z,86.90
2018-11-26T00:06:32.270Z,93.45
2018-11-26T00:07:05.439Z,89.25
2018-11-26T00:07:38.037Z,95.47
2018-11-26T00:08:11.641Z,91.35
2018-11-26T00:08:44.273Z,90.15
2018-11-26T00:09:16.902Z,89.40
2018-11-26T00:09:49.532Z,85.10
2018-11-26T00:10:33.376Z,87.47
2018-11-26T00:11:17.367Z,84.77
2018-11-26T00:11:49.986Z,92.62
2018-11-26T00:12:22.593Z,90.97
2018-11-26T00:12:55.175Z,90.45
2018-11-26T00:13:27.888Z,95.50
2018-11-26T00:14:00.515Z,93.95
2018-11-26T00:14:33.108Z,93.92
2018-11-26T00:15:06.008Z,87.08
2018-11-26T00:15:38.668Z,92.10
2018-11-26T00:16:11.253Z,82.12
2018-11-26T00:16:43.900Z,88.92
2018-11-26T00:17:16.504Z,94.42
2018-11-26T00:17:49.082Z,97.05
2018-11-26T00:18:21.667Z,92.70
2018-11-26T00:18:54.277Z,93.03
2018-11-26T00:19:26.895Z,90.75
2018-11-26T00:19:59.476Z,94.32
2018-11-26T00:20:32.096Z,91.87
2018-11-26T00:21:05.042Z,93.75
2018-11-26T00:21:37.645Z,91.70
2018-11-26T00:22:10.242Z,94.62
2018-11-26T00:22:42.836Z,89.00
2018-11-26T00:23:15.431Z,94.83
2018-11-26T00:23:48.054Z,97.45
2018-11-26T00:24:20.639Z,102.07
2018-11-26T00:24:53.224Z,99.55
2018-11-26T00:25:26.286Z,99.10
2018-11-26T00:25:58.927Z,92.60
2018-11-26T00:26:31.524Z,94.87
2018-11-26T00:27:04.317Z,100.95
2018-11-26T00:27:36.913Z,86.75
2018-11-26T00:28:09.493Z,95.47
2018-11-26T00:28:42.105Z,101.90
2018-11-26T00:29:14.700Z,91.57
2018-11-26T00:29:47.286Z,106.27
2018-11-26T00:30:19.886Z,86.95
2018-11-26T00:30:52.475Z,101.72
2018-11-26T00:31:25.094Z,97.72
2018-11-26T00:31:57.683Z,95.97
2018-11-26T00:32:30.295Z,95.80
2018-11-26T00:33:02.878Z,95.80
2018-11-26T00:33:35.463Z,90.47
2018-11-26T00:34:08.073Z,109.63
2018-11-26T00:34:40.665Z,99.37
2018-11-26T00:35:13.253Z,95.67
2018-11-26T00:35:45.850Z,96.10
2018-11-26T00:36:18.445Z,94.60
2018-11-26T00:36:51.077Z,91.63
2018-11-26T00:37:23.704Z,91.40
2018-11-26T00:37:56.305Z,93.50
2018-11-26T00:38:28.900Z,93.92
2018-11-26T00:39:01.537Z,89.22
2018-11-26T00:39:34.108Z,96.08
2018-11-26T00:40:09.027Z,85.38
2018-11-26T00:40:41.612Z,89.97
2018-11-26T00:41:14.207Z,93.17
2018-11-26T00:41:46.810Z,88.82
2018-11-26T00:42:19.418Z,81.50
2018-11-26T00:42:52.033Z,79.62
2018-11-26T00:43:24.633Z,87.62
2018-11-26T00:43:57.255Z,79.12
2018-11-26T00:44:29.859Z,81.37
2018-11-26T00:45:02.460Z,80.30
2018-11-26T00:45:35.086Z,86.53
2018-11-26T00:46:07.740Z,80.45
2018-11-26T00:46:40.337Z,89.30
2018-11-26T00:47:12.938Z,80.38
2018-11-26T00:47:45.559Z,80.05
2018-11-26T00:48:18.176Z,76.35
2018-11-26T00:48:50.754Z,77.25
2018-11-26T00:49:23.346Z,80.90
2018-11-26T00:49:55.953Z,82.55
2018-11-26T00:50:28.561Z,75.17
2018-11-26T00:51:01.144Z,75.90
2018-11-26T00:51:33.790Z,77.47
2018-11-26T00:52:06.379Z,71.30
2018-11-26T00:52:39.928Z,72.70
2018-11-26T00:53:12.556Z,70.40
2018-11-26T00:53:45.149Z,76.00
2018-11-26T00:54:17.775Z,94.72
2018-11-26T00:54:50.366Z,77.37
2018-11-26T00:55:22.954Z,86.65
2018-11-26T00:55:55.545Z,75.70
2018-11-26T00:56:28.130Z,79.10
2018-11-26T00:57:00.728Z,79.32
2018-11-26T00:57:33.316Z,80.65
2018-11-26T00:58:05.955Z,81.85
2018-11-26T00:58:38.585Z,76.33
2018-11-26T00:59:11.166Z,78.25
2018-11-26T00:59:43.739Z,79.37
2018-11-26T01:00:16.433Z,79.07
2018-11-26T01:00:49.049Z,78.10
2018-11-26T01:01:21.666Z,77.92
2018-11-26T01:01:54.279Z,87.22
2018-11-26T01:02:26.879Z,68.90
2018-11-26T01:02:59.463Z,82.55
2018-11-26T01:03:32.101Z,78.30
2018-11-26T01:04:05.392Z,81.55
2018-11-26T01:04:39.174Z,87.88
2018-11-26T01:05:42.803Z,72.50
2018-11-26T01:06:15.421Z,78.60
2018-11-26T01:06:47.995Z,83.17
2018-11-26T01:07:20.595Z,70.45
2018-11-26T01:07:53.175Z,72.67
2018-11-26T01:08:25.763Z,71.53
2018-11-26T01:08:58.362Z,79.92
2018-11-26T01:09:30.982Z,82.97
2018-11-26T01:10:03.683Z,70.42
2018-11-26T01:10:36.332Z,68.35
2018-11-26T01:11:08.939Z,74.65
2018-11-26T01:11:41.560Z,72.05
2018-11-26T01:12:14.171Z,79.67
2018-11-26T01:12:46.772Z,83.15
2018-11-26T01:13:19.365Z,74.80
2018-11-26T01:13:52.076Z,73.78
2018-11-26T01:14:24.697Z,70.12
2018-11-26T01:14:57.319Z,71.87
2018-11-26T01:15:29.974Z,78.85
2018-11-26T01:16:02.590Z,75.87
2018-11-26T01:16:35.167Z,84.50
2018-11-26T01:17:07.778Z,69.30
2018-11-26T01:17:40.373Z,69.10
2018-11-26T01:18:12.975Z,69.12
2018-11-26T01:18:45.601Z,73.70
2018-11-26T01:19:18.198Z,70.15
2018-11-26T01:19:50.789Z,70.95
2018-11-26T01:20:23.497Z,76.17
2018-11-26T01:20:56.090Z,73.40
2018-11-26T01:21:28.686Z,72.55
2018-11-26T01:22:01.281Z,67.78
2018-11-26T01:22:33.880Z,71.37
2018-11-26T01:23:06.514Z,65.83
2018-11-26T01:23:39.108Z,72.58
2018-11-26T01:24:11.711Z,73.00
2018-11-26T01:24:44.314Z,73.02
2018-11-26T01:25:17.183Z,73.28
2018-11-26T01:25:49.829Z,64.58
2018-11-26T01:26:22.419Z,66.72
2018-11-26T01:26:55.013Z,68.60
2018-11-26T01:27:27.611Z,73.52
2018-11-26T01:28:00.207Z,65.67
2018-11-26T01:28:32.803Z,77.35
2018-11-26T01:29:05.757Z,81.72
2018-11-26T01:29:38.355Z,73.05
2018-11-26T01:30:10.947Z,75.20
2018-11-26T01:30:43.547Z,81.75
2018-11-26T01:31:16.167Z,77.70
2018-11-26T01:31:48.764Z,77.95
2018-11-26T01:32:21.373Z,89.03
2018-11-26T01:32:54.001Z,84.30
2018-11-26T01:33:26.621Z,86.40
2018-11-26T01:33:59.216Z,83.67
2018-11-26T01:34:31.829Z,78.92
2018-11-26T01:35:04.967Z,76.47
2018-11-26T01:35:37.547Z,86.30
2018-11-26T01:36:10.145Z,84.37
2018-11-26T01:36:42.768Z,76.45
2018-11-26T01:37:15.364Z,84.95
2018-11-26T01:37:47.967Z,82.67
2018-11-26T01:38:20.539Z,81.50
2018-11-26T01:38:53.132Z,83.97
2018-11-26T01:39:25.747Z,76.65
2018-11-26T01:39:58.353Z,82.95
2018-11-26T01:40:36.688Z,72.03
2018-11-26T01:41:09.291Z,75.00
2018-11-26T01:41:41.889Z,80.28
2018-11-26T01:42:14.498Z,74.97
2018-11-26T01:42:47.165Z,75.03
2018-11-26T01:43:20.283Z,71.17
2018-11-26T01:43:52.883Z,80.85
2018-11-26T01:44:25.468Z,72.47
2018-11-26T01:44:58.092Z,79.72
2018-11-26T01:45:30.692Z,65.83
2018-11-26T01:46:03.309Z,67.62
2018-11-26T01:46:35.936Z,76.37
2018-11-26T01:47:08.538Z,79.58
2018-11-26T01:47:41.168Z,77.53
2018-11-26T01:48:13.756Z,69.58
2018-11-26T01:48:46.364Z,80.97
2018-11-26T01:49:18.977Z,69.12
2018-11-26T01:49:51.580Z,67.67
2018-11-26T01:50:24.159Z,76.92
2018-11-26T01:50:56.766Z,69.47
2018-11-26T01:51:29.369Z,81.75
2018-11-26T01:52:01.959Z,73.85
2018-11-26T01:52:34.576Z,75.25
2018-11-26T01:53:07.457Z,62.75
2018-11-26T01:53:40.055Z,74.47
2018-11-26T01:54:12.655Z,82.12
2018-11-26T01:54:45.253Z,74.45
2018-11-26T01:55:17.858Z,71.47
2018-11-26T01:55:50.469Z,70.75
2018-11-26T01:56:23.081Z,71.65
2018-11-26T01:56:55.698Z,74.37
2018-11-26T01:57:28.276Z,73.42
2018-11-26T01:58:00.981Z,72.87
2018-11-26T01:58:33.593Z,71.53
2018-11-26T01:59:06.184Z,85.47
2018-11-26T01:59:38.780Z,78.35
2018-11-26T02:00:14.046Z,69.97
2018-11-26T02:00:46.674Z,76.40
2018-11-26T02:01:19.279Z,81.45
2018-11-26T02:01:51.896Z,75.87
2018-11-26T02:02:24.491Z,72.10
2018-11-26T02:02:57.088Z,75.05
2018-11-26T02:03:29.747Z,71.35
2018-11-26T02:04:02.378Z,80.62
2018-11-26T02:04:34.987Z,71.10
2018-11-26T02:05:07.660Z,84.28
2018-11-26T02:05:40.258Z,68.65
2018-11-26T02:06:12.839Z,79.22
2018-11-26T02:06:45.469Z,75.70
2018-11-26T02:07:18.106Z,84.58
2018-11-26T02:07:50.707Z,71.28
2018-11-26T02:08:23.305Z,80.50
2018-11-26T02:08:55.886Z,76.95
2018-11-26T02:09:28.528Z,72.60
2018-11-26T02:10:01.137Z,75.72
2018-11-26T02:10:33.731Z,68.33
2018-11-26T02:11:06.886Z,65.17
2018-11-26T02:11:39.470Z,79.25
2018-11-26T02:12:12.083Z,76.97
2018-11-26T02:12:44.727Z,75.97
2018-11-26T02:13:17.319Z,79.00
2018-11-26T02:13:49.929Z,75.85
2018-11-26T02:14:22.644Z,73.90
2018-11-26T02:14:55.280Z,72.20
2018-11-26T02:15:36.131Z,77.85
2018-11-26T02:16:08.732Z,71.75
2018-11-26T02:16:41.352Z,69.77
2018-11-26T02:17:13.936Z,78.42
2018-11-26T02:17:46.527Z,81.42
2018-11-26T02:18:19.109Z,72.60
2018-11-26T02:18:51.718Z,68.07
2018-11-26T02:19:24.316Z,76.60
2018-11-26T02:19:56.969Z,80.97
2018-11-26T02:20:29.581Z,78.90
2018-11-26T02:21:02.220Z,79.47
2018-11-26T02:21:34.819Z,83.95
2018-11-26T02:22:07.452Z,85.47
2018-11-26T02:22:40.052Z,80.80
2018-11-26T02:23:12.651Z,75.15
2018-11-26T02:23:45.272Z,72.58
2018-11-26T02:24:17.855Z,78.00
2018-11-26T02:24:50.458Z,81.65
2018-11-26T02:25:23.480Z,78.37
2018-11-26T02:25:56.064Z,77.27
2018-11-26T02:26:28.684Z,79.22
2018-11-26T02:27:01.285Z,74.58
2018-11-26T02:27:33.901Z,77.40
2018-11-26T02:28:06.662Z,72.10
2018-11-26T02:28:39.242Z,78.80
2018-11-26T02:29:11.827Z,82.50
2018-11-26T02:29:44.413Z,75.62
2018-11-26T02:30:17.017Z,72.65
2018-11-26T02:30:49.644Z,78.90
2018-11-26T02:31:22.251Z,70.55
2018-11-26T02:31:54.843Z,79.22
2018-11-26T02:32:27.456Z,75.92
2018-11-26T02:33:00.056Z,71.72
2018-11-26T02:33:32.645Z,74.00
2018-11-26T02:34:05.271Z,69.50
2018-11-26T02:34:37.882Z,66.00
2018-11-26T02:35:10.465Z,76.25
2018-11-26T02:35:43.072Z,73.25
2018-11-26T02:36:15.687Z,76.77
2018-11-26T02:36:48.302Z,72.95
2018-11-26T02:37:20.924Z,75.95
2018-11-26T02:37:53.712Z,75.87
2018-11-26T02:38:26.301Z,73.87
2018-11-26T02:38:58.911Z,71.12
2018-11-26T02:39:31.546Z,68.07
2018-11-26T02:40:05.591Z,72.92
2018-11-26T02:40:38.216Z,72.47
2018-11-26T02:41:10.837Z,76.82
2018-11-26T02:41:43.514Z,72.90
2018-11-26T02:42:16.119Z,70.25
2018-11-26T02:42:48.765Z,73.57
2018-11-26T02:43:21.404Z,75.35
2018-11-26T02:43:54.021Z,74.12
2018-11-26T02:44:26.638Z,70.40
2018-11-26T02:44:59.267Z,73.50
2018-11-26T02:45:31.908Z,69.65
2018-11-26T02:46:04.911Z,74.40
2018-11-26T02:46:37.536Z,70.30
2018-11-26T02:47:10.186Z,75.32
2018-11-26T02:47:42.807Z,71.20
2018-11-26T02:48:15.442Z,73.07
2018-11-26T02:48:48.060Z,73.35
2018-11-26T02:49:20.672Z,64.00
2018-11-26T02:49:53.271Z,72.37
2018-11-26T02:50:25.922Z,62.40
2018-11-26T02:50:58.536Z,88.52
2018-11-26T02:51:31.124Z,72.45
2018-11-26T02:52:03.770Z,68.80
2018-11-26T02:52:36.415Z,64.45
2018-11-26T02:53:09.070Z,75.00
2018-11-26T02:53:41.701Z,79.70
2018-11-26T02:54:14.329Z,69.67
2018-11-26T02:54:46.964Z,73.65
2018-11-26T02:55:19.645Z,69.62
2018-11-26T02:55:52.250Z,71.72
2018-11-26T02:56:24.881Z,68.40
2018-11-26T02:56:57.491Z,72.97
2018-11-26T02:57:30.121Z,64.60
2018-11-26T02:58:02.802Z,70.15
2018-11-26T02:58:35.431Z,68.97
2018-11-26T02:59:08.031Z,69.62
2018-11-26T02:59:40.635Z,79.40
2018-11-26T03:00:13.535Z,68.12
2018-11-26T03:00:46.457Z,77.08
2018-11-26T03:01:19.073Z,71.47
2018-11-26T03:01:52.078Z,74.15
2018-11-26T03:02:24.684Z,65.57
2018-11-26T03:02:57.348Z,67.12
2018-11-26T03:03:29.983Z,74.27
2018-11-26T03:04:02.624Z,73.95
2018-11-26T03:04:35.235Z,63.50
2018-11-26T03:05:10.083Z,66.72
2018-11-26T03:05:42.790Z,63.13
2018-11-26T03:06:15.417Z,70.15
2018-11-26T03:06:48.051Z,63.85
2018-11-26T03:07:20.698Z,73.10
2018-11-26T03:07:53.428Z,77.45
2018-11-26T03:08:26.053Z,74.85
2018-11-26T03:08:58.683Z,67.32
2018-11-26T03:09:31.320Z,66.02
2018-11-26T03:10:05.083Z,65.47
2018-11-26T03:10:37.725Z,75.15
2018-11-26T03:11:10.357Z,72.75
2018-11-26T03:11:42.960Z,71.00
2018-11-26T03:12:15.616Z,66.02
2018-11-26T03:12:48.252Z,70.95
2018-11-26T03:13:20.851Z,65.17
2018-11-26T03:13:53.498Z,68.22
2018-11-26T03:14:26.257Z,65.08
2018-11-26T03:14:58.881Z,62.78
2018-11-26T03:15:31.521Z,60.78
2018-11-26T03:16:04.404Z,67.67
2018-11-26T03:16:37.118Z,69.00
2018-11-26T03:17:09.727Z,69.12
2018-11-26T03:17:42.348Z,77.00
2018-11-26T03:18:14.961Z,72.30
2018-11-26T03:18:47.578Z,68.45
2018-11-26T03:19:20.201Z,68.83
2018-11-26T03:19:52.832Z,68.85
2018-11-26T03:20:25.461Z,66.30
2018-11-26T03:20:58.052Z,60.25
2018-11-26T03:21:30.651Z,68.40
2018-11-26T03:22:03.256Z,65.83
2018-11-26T03:22:35.864Z,62.62
2018-11-26T03:23:08.498Z,62.33
2018-11-26T03:23:41.117Z,74.00
2018-11-26T03:24:13.741Z,72.10
2018-11-26T03:24:46.372Z,69.35
2018-11-26T03:25:19.060Z,67.70
2018-11-26T03:25:51.681Z,69.62
2018-11-26T03:26:24.292Z,72.95
2018-11-26T03:26:56.907Z,71.57
2018-11-26T03:27:29.534Z,62.62
2018-11-26T03:28:02.153Z,77.70
2018-11-26T03:28:34.770Z,62.25
2018-11-26T03:29:07.396Z,77.92
2018-11-26T03:29:40.021Z,71.95
2018-11-26T03:30:16.937Z,69.77
2018-11-26T03:30:49.581Z,72.00
2018-11-26T03:31:22.219Z,72.10
2018-11-26T03:31:54.946Z,70.95
2018-11-26T03:32:27.575Z,65.20
2018-11-26T03:33:00.187Z,65.70
2018-11-26T03:33:32.832Z,70.90
2018-11-26T03:34:05.485Z,68.33
2018-11-26T03:34:38.140Z,69.53
2018-11-26T03:35:10.785Z,64.60
2018-11-26T03:35:43.392Z,68.90
2018-11-26T03:36:16.079Z,62.83
2018-11-26T03:36:48.695Z,68.28
2018-11-26T03:37:21.349Z,64.00
2018-11-26T03:37:53.993Z,66.65
2018-11-26T03:38:34.963Z,72.90
2018-11-26T03:39:07.658Z,65.67
2018-11-26T03:39:40.287Z,74.60
2018-11-26T03:40:13.368Z,68.70
2018-11-26T03:40:45.976Z,70.97
2018-11-26T03:41:18.699Z,68.17
2018-11-26T03:41:51.351Z,74.30
2018-11-26T03:42:23.969Z,59.83
2018-11-26T03:42:56.580Z,66.20
2018-11-26T03:43:29.201Z,69.20
2018-11-26T03:44:01.860Z,73.40
2018-11-26T03:44:34.474Z,67.05
2018-11-26T03:45:21.847Z,65.10
2018-11-26T03:45:54.477Z,71.00
2018-11-26T03:46:27.128Z,67.30
2018-11-26T03:46:59.764Z,65.78
2018-11-26T03:47:32.381Z,63.90
2018-11-26T03:48:05.629Z,73.62
2018-11-26T03:48:38.281Z,61.00
2018-11-26T03:49:10.917Z,65.57
2018-11-26T03:49:43.540Z,66.45
2018-11-26T03:50:16.184Z,65.87
2018-11-26T03:50:48.817Z,64.03
2018-11-26T03:51:21.437Z,65.08
2018-11-26T03:51:54.081Z,62.45
2018-11-26T03:52:26.719Z,63.80
2018-11-26T03:52:59.324Z,71.33
2018-11-26T03:53:31.945Z,63.70
2018-11-26T03:54:04.688Z,67.27
2018-11-26T03:54:37.288Z,68.30
2018-11-26T03:55:10.706Z,60.03
2018-11-26T03:55:43.344Z,67.92
2018-11-26T03:56:15.978Z,62.65
2018-11-26T03:56:48.596Z,71.82
2018-11-26T03:57:21.263Z,64.20
2018-11-26T03:57:53.877Z,72.67
2018-11-26T03:58:26.502Z,62.50
2018-11-26T03:58:59.127Z,62.53
2018-11-26T03:59:31.743Z,66.65
2018-11-26T04:00:06.911Z,63.98
2018-11-26T04:00:39.533Z,66.40
2018-11-26T04:01:12.155Z,66.15
2018-11-26T04:01:44.780Z,63.90
2018-11-26T04:02:17.408Z,69.58
2018-11-26T04:02:50.051Z,66.55
2018-11-26T04:03:22.676Z,61.35
2018-11-26T04:03:55.306Z,63.08
2018-11-26T04:04:27.924Z,71.37
2018-11-26T04:05:00.542Z,70.87
2018-11-26T04:05:33.160Z,66.95
2018-11-26T04:06:05.835Z,70.00
2018-11-26T04:06:38.452Z,66.42
2018-11-26T04:07:11.058Z,70.28
2018-11-26T04:07:43.689Z,65.78
2018-11-26T04:08:16.336Z,67.37
2018-11-26T04:08:48.946Z,75.60
2018-11-26T04:09:21.578Z,66.37
2018-11-26T04:09:54.195Z,70.50
2018-11-26T04:10:26.802Z,71.47
2018-11-26T04:10:59.441Z,66.57
2018-11-26T04:11:32.063Z,72.55
2018-11-26T04:12:05.015Z,70.83
2018-11-26T04:12:37.626Z,66.07
2018-11-26T04:13:10.288Z,63.65
2018-11-26T04:13:42.945Z,66.82
2018-11-26T04:14:15.637Z,68.30
2018-11-26T04:14:48.361Z,70.10
2018-11-26T04:15:21.012Z,65.08
2018-11-26T04:15:53.621Z,67.87
2018-11-26T04:16:26.235Z,70.67
2018-11-26T04:17:02.004Z,66.77
2018-11-26T04:17:34.612Z,68.78
2018-11-26T04:18:07.249Z,70.10
2018-11-26T04:18:39.878Z,70.95
2018-11-26T04:19:12.536Z,74.45
2018-11-26T04:19:45.203Z,74.45
2018-11-26T04:20:17.843Z,69.27
2018-11-26T04:20:50.464Z,70.65
2018-11-26T04:21:23.081Z,71.00
2018-11-26T04:21:55.701Z,62.05
2018-11-26T04:22:28.322Z,65.90
2018-11-26T04:23:00.942Z,70.15
2018-11-26T04:23:33.578Z,68.87
2018-11-26T04:24:06.234Z,69.77
2018-11-26T04:24:38.878Z,69.25
2018-11-26T04:25:11.488Z,66.07
2018-11-26T04:25:44.113Z,73.72
2018-11-26T04:26:16.723Z,68.65
2018-11-26T04:26:49.347Z,69.55
2018-11-26T04:27:21.970Z,69.67
2018-11-26T04:27:54.602Z,71.00
2018-11-26T04:28:27.214Z,66.57
2018-11-26T04:28:59.839Z,65.62
2018-11-26T04:29:32.456Z,67.78
2018-11-26T04:30:08.272Z,65.30
2018-11-26T04:30:40.909Z,70.72
2018-11-26T04:31:13.552Z,65.37
2018-11-26T04:31:46.184Z,66.65
2018-11-26T04:32:18.796Z,65.85
2018-11-26T04:32:51.419Z,65.20
2018-11-26T04:33:24.044Z,62.20
2018-11-26T04:33:56.678Z,69.03
2018-11-26T04:34:29.291Z,66.10
2018-11-26T04:35:01.913Z,73.30
2018-11-26T04:35:34.552Z,59.95
2018-11-26T04:36:07.195Z,68.50
2018-11-26T04:36:39.812Z,67.60
2018-11-26T04:37:12.448Z,71.20
2018-11-26T04:37:45.040Z,75.90
2018-11-26T04:38:17.665Z,67.42
2018-11-26T04:38:50.330Z,63.13
2018-11-26T04:39:22.942Z,71.00
2018-11-26T04:39:55.555Z,67.35
2018-11-26T04:40:28.178Z,72.05
2018-11-26T04:41:00.822Z,65.50
2018-11-26T04:41:33.423Z,61.90
2018-11-26T04:42:06.052Z,66.62
2018-11-26T04:42:38.729Z,64.00
2018-11-26T04:43:11.347Z,65.87
2018-11-26T04:43:43.955Z,77.45
2018-11-26T04:44:16.562Z,72.17
2018-11-26T04:44:49.177Z,61.20
2018-11-26T04:45:21.831Z,68.85
2018-11-26T04:45:54.444Z,70.28
2018-11-26T04:46:27.099Z,58.68
2018-11-26T04:46:59.717Z,67.10
2018-11-26T04:47:32.349Z,73.17
2018-11-26T04:48:05.196Z,67.10
2018-11-26T04:48:37.841Z,69.62
2018-11-26T04:49:10.477Z,63.85
2018-11-26T04:49:43.099Z,63.40
2018-11-26T04:50:15.752Z,62.70
2018-11-26T04:50:48.424Z,65.75
2018-11-26T04:51:21.058Z,60.78
2018-11-26T04:51:53.704Z,56.95
2018-11-26T04:52:26.371Z,75.25
2018-11-26T04:52:58.976Z,69.77
2018-11-26T04:53:31.588Z,60.95
2018-11-26T04:54:04.244Z,63.80
2018-11-26T04:54:36.851Z,64.03
2018-11-26T04:55:11.534Z,66.35
2018-11-26T04:55:44.169Z,64.95
2018-11-26T04:56:16.807Z,69.92
2018-11-26T04:56:49.431Z,70.83
2018-11-26T04:57:22.089Z,65.10
2018-11-26T04:57:54.712Z,65.95
2018-11-26T04:58:27.319Z,65.72
2018-11-26T04:58:59.937Z,64.50
2018-11-26T04:59:32.559Z,68.70
2018-11-26T05:00:08.127Z,59.67
2018-11-26T05:00:40.753Z,79.07
2018-11-26T05:01:13.394Z,63.98
2018-11-26T05:01:46.011Z,72.80
2018-11-26T05:02:18.623Z,63.42
2018-11-26T05:02:51.281Z,64.72
2018-11-26T05:03:23.919Z,64.07
2018-11-26T05:03:56.537Z,70.45
2018-11-26T05:04:29.157Z,68.97
2018-11-26T05:05:01.793Z,62.08
2018-11-26T05:05:34.424Z,67.55
2018-11-26T05:06:07.062Z,59.48
2018-11-26T05:06:39.804Z,64.12
2018-11-26T05:07:12.437Z,64.50
2018-11-26T05:07:45.061Z,68.30
2018-11-26T05:08:17.748Z,64.12
2018-11-26T05:08:50.377Z,62.62
2018-11-26T05:09:22.992Z,68.72
2018-11-26T05:09:55.616Z,62.03
2018-11-26T05:10:28.219Z,76.07
2018-11-26T05:11:00.862Z,74.30
2018-11-26T05:11:33.474Z,73.97
2018-11-26T05:12:06.139Z,63.50
2018-11-26T05:12:38.781Z,66.82
2018-11-26T05:13:11.418Z,70.72
2018-11-26T05:13:44.060Z,66.10
2018-11-26T05:14:16.684Z,61.77
2018-11-26T05:14:49.406Z,63.65
2018-11-26T05:15:22.011Z,59.75
2018-11-26T05:15:54.625Z,62.10
2018-11-26T05:16:27.253Z,55.88
2018-11-26T05:16:59.855Z,70.03
2018-11-26T05:17:32.488Z,70.47
2018-11-26T05:18:05.330Z,64.67
2018-11-26T05:18:37.956Z,64.85
2018-11-26T05:19:10.595Z,69.32
2018-11-26T05:19:43.226Z,58.33
2018-11-26T05:20:15.854Z,68.22
2018-11-26T05:20:48.490Z,67.37
2018-11-26T05:21:21.110Z,59.58
2018-11-26T05:21:53.734Z,64.03
2018-11-26T05:22:26.372Z,65.10
2018-11-26T05:22:58.989Z,62.65
2018-11-26T05:23:31.620Z,57.90
2018-11-26T05:24:04.313Z,60.35
2018-11-26T05:24:36.969Z,64.87
2018-11-26T05:25:10.332Z,62.62
2018-11-26T05:25:42.949Z,64.90
2018-11-26T05:26:15.571Z,66.00
2018-11-26T05:26:48.212Z,56.95
2018-11-26T05:27:20.818Z,68.92
2018-11-26T05:27:53.433Z,60.73
2018-11-26T05:28:26.055Z,62.30
2018-11-26T05:28:58.682Z,65.62
2018-11-26T05:29:31.298Z,62.15
2018-11-26T05:30:04.804Z,73.85
2018-11-26T05:30:37.441Z,66.12
2018-11-26T05:31:10.063Z,68.67
2018-11-26T05:31:42.670Z,61.88
2018-11-26T05:32:15.286Z,67.15
2018-11-26T05:32:47.896Z,63.83
2018-11-26T05:33:20.527Z,64.80
2018-11-26T05:33:53.145Z,66.80
2018-11-26T05:34:25.772Z,62.17
2018-11-26T05:34:58.455Z,66.50
2018-11-26T05:35:31.144Z,60.43
2018-11-26T05:36:03.787Z,66.33
2018-11-26T05:36:36.417Z,58.28
2018-11-26T05:37:09.049Z,62.85
2018-11-26T05:37:41.673Z,68.10
2018-11-26T05:38:14.287Z,69.27
2018-11-26T05:38:46.910Z,68.02
2018-11-26T05:39:19.550Z,61.45
2018-11-26T05:39:52.184Z,69.77
2018-11-26T05:40:24.838Z,67.15
2018-11-26T05:40:57.491Z,56.85
2018-11-26T05:41:31.217Z,63.42
2018-11-26T05:42:03.909Z,67.87
2018-11-26T05:42:36.558Z,68.25
2018-11-26T05:43:09.194Z,69.22
2018-11-26T05:43:41.798Z,68.22
2018-11-26T05:44:14.433Z,62.10
2018-11-26T05:44:47.031Z,62.98
2018-11-26T05:45:19.655Z,66.30
2018-11-26T05:45:52.273Z,75.90
2018-11-26T05:46:24.932Z,69.50
2018-11-26T05:46:57.550Z,68.28
2018-11-26T05:47:30.520Z,63.13
2018-11-26T05:48:03.228Z,71.20
2018-11-26T05:48:35.999Z,59.88
2018-11-26T05:49:08.666Z,69.60
2018-11-26T05:49:41.293Z,67.03
2018-11-26T05:50:14.733Z,72.65
2018-11-26T05:50:47.378Z,69.92
2018-11-26T05:51:20.071Z,69.65
2018-11-26T05:51:52.717Z,80.55
2018-11-26T05:52:25.381Z,68.52
2018-11-26T05:52:58.021Z,68.57
2018-11-26T05:53:30.635Z,65.78
2018-11-26T05:54:03.283Z,68.50
2018-11-26T05:54:35.934Z,65.40
2018-11-26T05:55:11.179Z,66.05
2018-11-26T05:55:43.817Z,67.80
2018-11-26T05:56:16.464Z,71.53
2018-11-26T05:56:49.073Z,63.80
2018-11-26T05:57:21.725Z,74.87
2018-11-26T05:57:54.352Z,67.15
2018-11-26T05:58:26.975Z,64.25
2018-11-26T05:58:59.591Z,65.57
2018-11-26T05:59:32.214Z,74.00
2018-11-26T06:00:28.572Z,66.85
2018-11-26T06:01:01.201Z,61.37
2018-11-26T06:01:33.839Z,69.37
2018-11-26T06:02:06.551Z,68.37
2018-11-26T06:02:39.200Z,71.67
2018-11-26T06:03:11.831Z,73.80
2018-11-26T06:03:44.449Z,69.50
2018-11-26T06:04:17.119Z,74.80
2018-11-26T06:04:49.719Z,71.33
2018-11-26T06:05:22.361Z,68.97
2018-11-26T06:05:55.000Z,65.52
2018-11-26T06:06:27.607Z,68.95
2018-11-26T06:07:00.220Z,71.77
2018-11-26T06:07:32.819Z,83.65
2018-11-26T06:08:05.616Z,75.32
2018-11-26T06:08:38.310Z,76.22
2018-11-26T06:09:11.081Z,73.78
2018-11-26T06:09:43.700Z,66.80
2018-11-26T06:10:16.316Z,70.78
2018-11-26T06:10:48.974Z,64.85
2018-11-26T06:11:21.598Z,71.15
2018-11-26T06:11:54.244Z,76.45
2018-11-26T06:12:26.924Z,84.65
2018-11-26T06:12:59.551Z,81.70
2018-11-26T06:13:32.201Z,76.95
2018-11-26T06:14:05.149Z,72.62
2018-11-26T06:14:37.761Z,76.85
2018-11-26T06:15:12.003Z,78.25
2018-11-26T06:15:44.615Z,82.55
2018-11-26T06:16:17.218Z,76.33
2018-11-26T06:16:53.723Z,71.47
2018-11-26T06:17:22.472Z,73.37
2018-11-26T06:17:55.102Z,73.72
2018-11-26T06:18:27.708Z,74.45
2018-11-26T06:19:00.370Z,78.75
2018-11-26T06:19:32.987Z,82.70
2018-11-26T06:20:06.916Z,75.37
2018-11-26T06:20:39.586Z,76.05
2018-11-26T06:21:12.286Z,84.47
2018-11-26T06:21:44.899Z,69.90
2018-11-26T06:22:17.515Z,76.80
2018-11-26T06:22:50.123Z,79.95
2018-11-26T06:23:22.756Z,74.30
2018-11-26T06:23:55.360Z,70.50
2018-11-26T06:24:27.995Z,80.83
2018-11-26T06:25:00.625Z,78.55
2018-11-26T06:25:33.295Z,73.45
2018-11-26T06:26:05.934Z,76.47
2018-11-26T06:26:38.579Z,76.57
2018-11-26T06:27:11.216Z,75.30
2018-11-26T06:27:43.898Z,70.95
2018-11-26T06:28:16.517Z,76.77
2018-11-26T06:28:49.124Z,80.95
2018-11-26T06:29:21.738Z,73.20
2018-11-26T06:29:54.377Z,74.05
2018-11-26T06:30:26.985Z,78.47
2018-11-26T06:30:59.607Z,72.20
2018-11-26T06:31:32.224Z,73.33
2018-11-26T06:32:04.887Z,83.37
2018-11-26T06:32:37.560Z,87.02
2018-11-26T06:33:10.241Z,73.83
2018-11-26T06:33:42.867Z,66.80
2018-11-26T06:34:15.598Z,75.37
2018-11-26T06:34:48.431Z,74.37
2018-11-26T06:35:22.189Z,71.92
2018-11-26T06:35:54.832Z,86.12
2018-11-26T06:36:27.469Z,84.22
2018-11-26T06:37:00.124Z,73.07
2018-11-26T06:37:32.736Z,80.22
2018-11-26T06:38:06.616Z,75.30
2018-11-26T06:38:39.234Z,76.92
2018-11-26T06:39:11.853Z,78.10
2018-11-26T06:39:44.470Z,79.50
2018-11-26T06:40:17.182Z,81.87
2018-11-26T06:40:49.851Z,84.05
2018-11-26T06:41:22.461Z,72.65
2018-11-26T06:41:55.106Z,71.10
2018-11-26T06:42:27.801Z,76.45
2018-11-26T06:43:00.583Z,66.37
2018-11-26T06:43:33.206Z,75.30
2018-11-26T06:44:06.516Z,69.82
2018-11-26T06:44:39.136Z,74.32
2018-11-26T06:45:15.844Z,81.80
2018-11-26T06:45:48.463Z,77.90
2018-11-26T06:46:21.106Z,81.42
2018-11-26T06:46:53.686Z,79.42
2018-11-26T06:47:26.298Z,82.97
2018-11-26T06:47:58.913Z,74.67
2018-11-26T06:48:31.552Z,83.45
2018-11-26T06:49:04.415Z,73.28
2018-11-26T06:49:37.025Z,72.30
2018-11-26T06:50:13.083Z,74.47
2018-11-26T06:50:45.702Z,77.92
2018-11-26T06:51:18.333Z,74.35
2018-11-26T06:51:50.972Z,71.87
2018-11-26T06:52:23.563Z,80.47
2018-11-26T06:52:56.162Z,74.82
2018-11-26T06:53:28.781Z,77.42
2018-11-26T06:54:01.401Z,73.15
2018-11-26T06:54:34.010Z,82.78
2018-11-26T06:55:09.518Z,79.97
2018-11-26T06:55:42.213Z,79.45
2018-11-26T06:56:14.815Z,74.70
2018-11-26T06:56:47.437Z,76.30
2018-11-26T06:57:20.081Z,91.22
2018-11-26T06:57:52.684Z,79.45
2018-11-26T06:58:25.298Z,82.10
2018-11-26T06:58:57.934Z,75.25
2018-11-26T06:59:30.550Z,79.37
2018-11-26T07:00:03.771Z,84.42
2018-11-26T07:00:36.389Z,80.35
2018-11-26T07:01:08.980Z,83.03
2018-11-26T07:01:41.588Z,79.12
2018-11-26T07:02:14.203Z,78.25
2018-11-26T07:02:46.836Z,81.78
2018-11-26T07:03:19.431Z,78.75